createdAt,value
2023-02-19T00:00:54.748Z,0.00
2023-02-19T00:01:54.744Z,0.00
2023-02-19T00:02:54.725Z,0.00
2023-02-19T00:03:54.718Z,0.00
2023-02-19T00:04:54.819Z,0.00
2023-02-19T00:05:54.694Z,0.00
2023-02-19T00:06:54.686Z,0.00
2023-02-19T00:07:54.676Z,0.00
2023-02-19T00:08:54.661Z,0.00
2023-02-19T00:09:54.654Z,0.00
2023-02-19T00:10:54.641Z,0.00
2023-02-19T00:11:54.633Z,0.00
2023-02-19T00:12:54.622Z,0.00
2023-02-19T00:13:54.651Z,0.00
2023-02-19T00:14:54.603Z,0.00
2023-02-19T00:15:54.616Z,0.00
2023-02-19T00:16:54.581Z,0.00
2023-02-19T00:17:54.568Z,0.00
2023-02-19T00:18:54.562Z,0.00
2023-02-19T00:19:54.548Z,0.00
2023-02-19T00:20:54.539Z,0.00
2023-02-19T00:21:54.530Z,0.00
2023-02-19T00:22:54.617Z,0.00
2023-02-19T00:23:54.507Z,0.00
2023-02-19T00:24:54.501Z,0.00
2023-02-19T00:25:54.484Z,0.00
2023-02-19T00:26:54.480Z,0.00
2023-02-19T00:27:54.462Z,0.00
2023-02-19T00:28:54.456Z,0.00
2023-02-19T00:29:54.475Z,0.00
2023-02-19T00:30:54.505Z,0.00
2023-02-19T00:31:54.688Z,0.00
2023-02-19T00:32:54.417Z,0.00
2023-02-19T00:33:54.406Z,0.00
2023-02-19T00:34:54.401Z,0.00
2023-02-19T00:35:54.385Z,0.00
2023-02-19T00:36:54.372Z,0.00
2023-02-19T00:37:54.375Z,0.00
2023-02-19T00:38:54.355Z,0.00
2023-02-19T00:39:54.345Z,0.00
2023-02-19T00:40:54.335Z,0.00
2023-02-19T00:41:54.323Z,0.00
2023-02-19T00:42:54.316Z,0.00
2023-02-19T00:43:54.303Z,0.00
2023-02-19T00:44:54.294Z,0.00
2023-02-19T00:45:54.306Z,0.00
2023-02-19T00:46:54.273Z,0.00
2023-02-19T00:47:54.258Z,0.00
2023-02-19T00:48:54.263Z,0.00
2023-02-19T00:49:54.245Z,0.00
2023-02-19T00:50:54.231Z,0.00
2023-02-19T00:51:54.219Z,0.00
2023-02-19T00:52:54.206Z,0.00
2023-02-19T00:53:54.215Z,0.00
2023-02-19T00:54:54.188Z,0.00
2023-02-19T00:55:54.179Z,0.00
2023-02-19T00:56:54.169Z,0.00
2023-02-19T00:57:54.155Z,0.00
2023-02-19T00:58:54.155Z,0.00
2023-02-19T00:59:54.138Z,0.00
2023-02-19T01:00:54.125Z,0.00
2023-02-19T01:01:54.198Z,0.00
2023-02-19T01:02:54.111Z,0.00
2023-02-19T01:03:54.097Z,0.00
2023-02-19T01:04:54.153Z,0.00
2023-02-19T01:05:54.079Z,0.00
2023-02-19T01:06:54.059Z,0.00
2023-02-19T01:07:54.056Z,0.00
2023-02-19T01:08:54.039Z,0.00
2023-02-19T01:09:54.028Z,0.00
2023-02-19T01:10:54.023Z,0.00
2023-02-19T01:11:54.006Z,0.00
2023-02-19T01:12:53.999Z,0.00
2023-02-19T01:13:53.989Z,0.00
2023-02-19T01:14:53.975Z,0.00
2023-02-19T01:15:54.032Z,0.00
2023-02-19T01:16:53.964Z,0.00
2023-02-19T01:17:53.969Z,0.00
2023-02-19T01:18:53.934Z,0.00
2023-02-19T01:19:53.924Z,0.00
2023-02-19T01:20:53.919Z,0.00
2023-02-19T01:21:53.903Z,0.00
2023-02-19T01:22:53.893Z,0.00
2023-02-19T01:23:53.883Z,0.00
2023-02-19T01:24:53.874Z,0.00
2023-02-19T01:25:53.886Z,0.00
2023-02-19T01:26:53.853Z,0.00
2023-02-19T01:27:53.840Z,0.00
2023-02-19T01:28:53.834Z,0.00
2023-02-19T01:29:53.824Z,0.00
2023-02-19T01:30:53.931Z,0.00
2023-02-19T01:31:53.905Z,0.00
2023-02-19T01:32:53.791Z,0.00
2023-02-19T01:33:53.802Z,0.00
2023-02-19T01:34:53.772Z,0.00
2023-02-19T01:35:53.753Z,0.00
2023-02-19T01:36:53.750Z,0.00
2023-02-19T01:37:53.734Z,0.00
2023-02-19T01:38:53.724Z,0.00
2023-02-19T01:39:53.717Z,0.00
2023-02-19T01:40:53.704Z,0.00
2023-02-19T01:41:53.694Z,0.00
2023-02-19T01:42:53.689Z,0.00
2023-02-19T01:43:53.677Z,0.00
2023-02-19T01:44:53.665Z,0.00
2023-02-19T01:45:53.664Z,0.00
2023-02-19T01:46:53.674Z,0.00
2023-02-19T01:47:53.636Z,0.00
2023-02-19T01:48:53.623Z,0.00
2023-02-19T01:49:53.640Z,0.00
2023-02-19T01:50:53.606Z,0.00
2023-02-19T01:51:53.593Z,0.00
2023-02-19T01:52:53.583Z,0.00
2023-02-19T01:53:53.577Z,0.00
2023-02-19T01:54:53.570Z,0.00
2023-02-19T01:55:53.550Z,0.00
2023-02-19T01:56:53.561Z,0.00
2023-02-19T01:57:53.534Z,0.00
2023-02-19T01:58:53.524Z,0.00
2023-02-19T01:59:53.510Z,0.00
2023-02-19T02:00:53.538Z,0.00
2023-02-19T02:01:53.501Z,0.00
2023-02-19T02:02:53.479Z,0.00
2023-02-19T02:03:53.470Z,0.00
2023-02-19T02:04:53.460Z,0.00
2023-02-19T02:05:53.483Z,0.00
2023-02-19T02:06:53.439Z,0.00
2023-02-19T02:07:53.431Z,0.00
2023-02-19T02:08:53.432Z,0.00
2023-02-19T02:09:53.409Z,0.00
2023-02-19T02:10:53.399Z,0.00
2023-02-19T02:11:53.400Z,0.00
2023-02-19T02:12:53.385Z,0.00
2023-02-19T02:13:53.369Z,0.00
2023-02-19T02:14:53.356Z,0.00
2023-02-19T02:15:53.366Z,0.00
2023-02-19T02:16:53.340Z,0.00
2023-02-19T02:17:53.329Z,0.00
2023-02-19T02:18:53.478Z,0.00
2023-02-19T02:19:53.306Z,0.00
2023-02-19T02:20:53.298Z,0.00
2023-02-19T02:21:53.328Z,0.00
2023-02-19T02:22:53.285Z,0.00
2023-02-19T02:23:53.269Z,0.00
2023-02-19T02:24:53.256Z,0.00
2023-02-19T02:25:53.249Z,0.00
2023-02-19T02:26:53.241Z,0.00
2023-02-19T02:27:53.242Z,0.00
2023-02-19T02:28:53.235Z,0.00
2023-02-19T02:29:53.206Z,0.00
2023-02-19T02:30:53.276Z,0.00
2023-02-19T02:31:53.305Z,0.00
2023-02-19T02:32:53.181Z,0.00
2023-02-19T02:33:53.174Z,0.00
2023-02-19T02:34:53.155Z,0.00
2023-02-19T02:35:53.143Z,0.00
2023-02-19T02:36:53.145Z,0.00
2023-02-19T02:37:53.149Z,0.00
2023-02-19T02:38:53.125Z,0.00
2023-02-19T02:39:53.107Z,0.00
2023-02-19T02:40:53.108Z,0.00
2023-02-19T02:41:53.083Z,0.00
2023-02-19T02:42:53.075Z,0.00
2023-02-19T02:43:53.065Z,0.00
2023-02-19T02:44:53.054Z,0.00
2023-02-19T02:45:53.046Z,0.00
2023-02-19T02:46:53.034Z,0.00
2023-02-19T02:47:53.025Z,0.00
2023-02-19T02:48:53.010Z,0.00
2023-02-19T02:49:53.000Z,0.00
2023-02-19T02:50:52.989Z,0.00
2023-02-19T02:51:52.986Z,0.00
2023-02-19T02:52:52.967Z,0.00
2023-02-19T02:53:52.960Z,0.00
2023-02-19T02:54:52.949Z,0.00
2023-02-19T02:55:52.938Z,0.00
2023-02-19T02:56:52.962Z,0.00
2023-02-19T02:57:52.917Z,0.00
2023-02-19T02:58:52.908Z,0.00
2023-02-19T02:59:52.896Z,0.00
2023-02-19T03:00:52.961Z,0.00
2023-02-19T03:01:52.916Z,0.00
2023-02-19T03:02:52.874Z,0.00
2023-02-19T03:03:52.858Z,0.00
2023-02-19T03:04:52.849Z,0.00
2023-02-19T03:05:52.836Z,0.00
2023-02-19T03:06:52.826Z,0.00
2023-02-19T03:07:52.817Z,0.00
2023-02-19T03:08:52.805Z,0.00
2023-02-19T03:09:52.796Z,0.00
2023-02-19T03:10:52.790Z,0.00
2023-02-19T03:11:52.780Z,0.00
2023-02-19T03:12:52.764Z,0.00
2023-02-19T03:13:52.757Z,0.00
2023-02-19T03:14:52.750Z,0.00
2023-02-19T03:15:52.738Z,0.00
2023-02-19T03:16:52.866Z,0.00
2023-02-19T03:17:52.711Z,0.00
2023-02-19T03:18:52.701Z,0.00
2023-02-19T03:19:52.703Z,0.00
2023-02-19T03:20:52.713Z,0.00
2023-02-19T03:21:52.671Z,0.00
2023-02-19T03:22:52.661Z,0.00
2023-02-19T03:23:52.647Z,0.00
2023-02-19T03:24:52.639Z,0.00
2023-02-19T03:25:52.636Z,0.00
2023-02-19T03:26:52.620Z,0.00
2023-02-19T03:27:52.608Z,0.00
2023-02-19T03:28:52.597Z,0.00
2023-02-19T03:29:52.584Z,0.00
2023-02-19T03:30:52.575Z,0.00
2023-02-19T03:31:52.672Z,0.00
2023-02-19T03:32:52.557Z,0.00
2023-02-19T03:33:52.542Z,0.00
2023-02-19T03:34:52.533Z,0.00
2023-02-19T03:35:52.527Z,0.00
2023-02-19T03:36:52.516Z,0.00
2023-02-19T03:37:52.507Z,0.00
2023-02-19T03:38:52.495Z,0.00
2023-02-19T03:39:52.485Z,0.00
2023-02-19T03:40:52.478Z,0.00
2023-02-19T03:41:52.473Z,0.00
2023-02-19T03:42:54.949Z,0.00
2023-02-19T03:43:52.441Z,0.00
2023-02-19T03:44:52.433Z,0.00
2023-02-19T03:45:52.479Z,0.00
2023-02-19T03:46:52.408Z,0.00
2023-02-19T03:47:52.400Z,0.00
2023-02-19T03:48:52.392Z,0.00
2023-02-19T03:49:52.377Z,0.00
2023-02-19T03:50:52.368Z,0.00
2023-02-19T03:51:52.362Z,0.00
2023-02-19T03:52:52.363Z,0.00
2023-02-19T03:53:52.339Z,0.00
2023-02-19T03:54:52.329Z,0.00
2023-02-19T03:55:52.325Z,0.00
2023-02-19T03:56:52.311Z,0.00
2023-02-19T03:57:52.305Z,0.00
2023-02-19T03:58:52.290Z,0.00
2023-02-19T03:59:52.279Z,0.00
2023-02-19T04:00:52.270Z,0.00
2023-02-19T04:01:52.312Z,0.00
2023-02-19T04:02:52.254Z,0.00
2023-02-19T04:03:52.241Z,0.00
2023-02-19T04:04:52.306Z,0.00
2023-02-19T04:05:52.224Z,0.00
2023-02-19T04:06:52.209Z,0.00
2023-02-19T04:07:52.221Z,0.00
2023-02-19T04:08:52.191Z,0.00
2023-02-19T04:09:52.185Z,0.00
2023-02-19T04:10:52.173Z,0.00
2023-02-19T04:11:52.158Z,0.00
2023-02-19T04:12:52.154Z,0.00
2023-02-19T04:13:52.138Z,0.00
2023-02-19T04:14:52.133Z,0.00
2023-02-19T04:15:52.121Z,0.00
2023-02-19T04:16:52.171Z,0.00
2023-02-19T04:17:52.100Z,0.00
2023-02-19T04:18:52.097Z,0.00
2023-02-19T04:19:52.082Z,0.00
2023-02-19T04:20:52.073Z,0.00
2023-02-19T04:21:52.056Z,0.00
2023-02-19T04:22:52.054Z,0.00
2023-02-19T04:23:52.043Z,0.00
2023-02-19T04:24:52.029Z,0.00
2023-02-19T04:25:52.026Z,0.00
2023-02-19T04:26:52.113Z,0.00
2023-02-19T04:27:52.008Z,0.00
2023-02-19T04:28:51.990Z,0.00
2023-02-19T04:29:51.981Z,0.00
2023-02-19T04:30:51.997Z,0.00
2023-02-19T04:31:51.989Z,0.00
2023-02-19T04:32:51.939Z,0.00
2023-02-19T04:33:51.937Z,0.00
2023-02-19T04:34:54.243Z,0.00
2023-02-19T04:35:51.909Z,0.00
2023-02-19T04:36:51.899Z,0.00
2023-02-19T04:37:51.891Z,0.00
2023-02-19T04:38:51.885Z,0.00
2023-02-19T04:39:51.872Z,0.00
2023-02-19T04:40:51.862Z,0.00
2023-02-19T04:41:51.850Z,0.00
2023-02-19T04:42:51.850Z,0.00
2023-02-19T04:43:51.827Z,0.00
2023-02-19T04:44:51.822Z,0.00
2023-02-19T04:45:51.837Z,0.00
2023-02-19T04:46:51.791Z,0.00
2023-02-19T04:47:51.783Z,0.00
2023-02-19T04:48:51.795Z,0.00
2023-02-19T04:49:51.766Z,0.00
2023-02-19T04:50:51.750Z,0.00
2023-02-19T04:51:51.739Z,0.00
2023-02-19T04:52:51.750Z,0.00
2023-02-19T04:53:51.720Z,0.00
2023-02-19T04:54:51.714Z,0.00
2023-02-19T04:55:51.722Z,0.00
2023-02-19T04:56:51.748Z,0.00
2023-02-19T04:57:51.711Z,0.00
2023-02-19T04:58:51.734Z,0.00
2023-02-19T04:59:51.678Z,0.00
2023-02-19T05:00:51.652Z,0.00
2023-02-19T05:01:51.737Z,0.00
2023-02-19T05:02:51.636Z,0.00
2023-02-19T05:03:51.621Z,0.00
2023-02-19T05:04:51.606Z,0.00
2023-02-19T05:05:51.622Z,0.00
2023-02-19T05:06:51.597Z,0.00
2023-02-19T05:07:51.582Z,0.00
2023-02-19T05:08:51.578Z,0.00
2023-02-19T05:09:51.556Z,0.00
2023-02-19T05:10:51.548Z,0.00
2023-02-19T05:11:51.538Z,0.00
2023-02-19T05:12:51.528Z,0.00
2023-02-19T05:13:51.517Z,0.00
2023-02-19T05:14:51.508Z,0.00
2023-02-19T05:15:51.517Z,0.00
2023-02-19T05:16:51.483Z,0.00
2023-02-19T05:17:51.487Z,0.00
2023-02-19T05:18:51.465Z,0.00
2023-02-19T05:19:51.464Z,0.00
2023-02-19T05:20:51.444Z,0.00
2023-02-19T05:21:51.437Z,0.00
2023-02-19T05:22:51.425Z,0.00
2023-02-19T05:23:51.412Z,0.00
2023-02-19T05:24:51.404Z,0.00
2023-02-19T05:25:51.396Z,0.00
2023-02-19T05:26:51.398Z,0.00
2023-02-19T05:27:51.369Z,0.00
2023-02-19T05:28:51.369Z,0.00
2023-02-19T05:29:51.353Z,0.00
2023-02-19T05:30:51.391Z,0.00
2023-02-19T05:31:51.461Z,0.00
2023-02-19T05:32:51.322Z,0.00
2023-02-19T05:33:51.530Z,0.00
2023-02-19T05:35:51.287Z,0.00
2023-02-19T05:36:51.278Z,0.00
2023-02-19T05:37:51.267Z,0.00
2023-02-19T05:38:51.260Z,0.00
2023-02-19T05:39:51.248Z,1.00
2023-02-19T05:40:51.247Z,1.00
2023-02-19T05:41:51.232Z,1.00
2023-02-19T05:42:51.218Z,1.00
2023-02-19T05:43:51.222Z,0.00
2023-02-19T05:44:51.203Z,0.00
2023-02-19T05:45:51.189Z,0.00
2023-02-19T05:46:51.180Z,0.00
2023-02-19T05:47:51.170Z,0.00
2023-02-19T05:48:51.156Z,2.00
2023-02-19T05:49:51.153Z,2.00
2023-02-19T05:51:51.179Z,0.00
2023-02-19T05:52:51.116Z,0.00
2023-02-19T05:53:51.126Z,4.00
2023-02-19T05:54:51.093Z,0.00
2023-02-19T05:55:51.084Z,2.00
2023-02-19T05:56:51.076Z,6.00
2023-02-19T05:57:51.069Z,5.00
2023-02-19T05:58:51.069Z,3.00
2023-02-19T05:59:51.054Z,2.00
2023-02-19T06:00:51.036Z,3.00
2023-02-19T06:01:51.030Z,8.00
2023-02-19T06:02:51.063Z,4.00
2023-02-19T06:03:51.099Z,15.00
2023-02-19T06:04:50.988Z,7.00
2023-02-19T06:05:51.001Z,12.00
2023-02-19T06:06:50.990Z,12.00
2023-02-19T06:07:50.967Z,18.00
2023-02-19T06:08:50.951Z,14.00
2023-02-19T06:10:50.931Z,25.00
2023-02-19T06:11:50.921Z,28.00
2023-02-19T06:12:50.913Z,34.00
2023-02-19T06:13:50.908Z,44.00
2023-02-19T06:14:50.890Z,53.00
2023-02-19T06:15:50.911Z,60.00
2023-02-19T06:16:50.876Z,70.00
2023-02-19T06:17:50.863Z,78.00
2023-02-19T06:18:50.846Z,86.00
2023-02-19T06:19:50.839Z,96.00
2023-02-19T06:20:50.826Z,104.00
2023-02-19T06:22:50.813Z,125.00
2023-02-19T06:23:50.805Z,138.00
2023-02-19T06:24:50.786Z,151.00
2023-02-19T06:26:50.766Z,179.00
2023-02-19T06:27:50.754Z,195.00
2023-02-19T06:28:50.766Z,211.00
2023-02-19T06:29:50.738Z,228.00
2023-02-19T06:30:51.599Z,246.00
2023-02-19T06:31:50.771Z,270.00
2023-02-19T06:32:50.705Z,290.00
2023-02-19T06:33:50.932Z,313.00
2023-02-19T06:34:50.698Z,320.00
2023-02-19T06:35:50.675Z,350.00
2023-02-19T06:36:50.672Z,380.00
2023-02-19T06:37:50.658Z,423.00
2023-02-19T06:38:50.655Z,467.00
2023-02-19T06:39:50.646Z,514.00
2023-02-19T06:40:50.624Z,563.00
2023-02-19T06:41:50.619Z,593.00
2023-02-19T06:42:50.607Z,636.00
2023-02-19T06:43:50.599Z,673.00
2023-02-19T06:44:50.589Z,710.00
2023-02-19T06:45:50.577Z,747.00
2023-02-19T06:46:50.612Z,784.00
2023-02-19T06:47:50.558Z,813.00
2023-02-19T06:48:50.551Z,848.00
2023-02-19T06:49:50.537Z,894.00
2023-02-19T06:50:50.524Z,917.00
2023-02-19T06:51:50.517Z,953.00
2023-02-19T06:52:50.506Z,995.00
2023-02-19T06:54:50.484Z,1068.00
2023-02-19T06:55:50.472Z,1102.00
2023-02-19T06:56:50.462Z,1141.00
2023-02-19T06:57:50.453Z,1167.00
2023-02-19T06:58:50.438Z,1221.00
2023-02-19T06:59:50.427Z,1245.00
2023-02-19T07:00:50.444Z,1288.00
2023-02-19T07:01:50.408Z,1327.00
2023-02-19T07:02:50.400Z,1362.00
2023-02-19T07:03:50.416Z,1401.00
2023-02-19T07:04:50.375Z,1429.00
2023-02-19T07:05:50.371Z,1466.00
2023-02-19T07:06:50.362Z,1500.00
2023-02-19T07:07:50.343Z,1537.00
2023-02-19T07:08:50.333Z,1573.00
2023-02-19T07:09:50.324Z,1599.00
2023-02-19T07:10:50.314Z,1635.00
2023-02-19T07:11:50.310Z,1660.00
2023-02-19T07:12:50.293Z,1686.00
2023-02-19T07:13:50.280Z,1724.00
2023-02-19T07:14:50.270Z,1747.00
2023-02-19T07:15:52.080Z,1776.00
2023-02-19T07:16:50.264Z,1810.00
2023-02-19T07:17:50.236Z,1839.00
2023-02-19T07:18:50.229Z,1871.00
2023-02-19T07:19:50.217Z,1905.00
2023-02-19T07:20:50.205Z,1952.00
2023-02-19T07:21:50.196Z,1974.00
2023-02-19T07:22:50.190Z,2008.00
2023-02-19T07:23:50.177Z,2034.00
2023-02-19T07:24:50.169Z,2056.00
2023-02-19T07:25:50.156Z,2113.00
2023-02-19T07:26:50.140Z,2139.00
2023-02-19T07:27:50.133Z,2165.00
2023-02-19T07:28:50.129Z,2195.00
2023-02-19T07:29:50.113Z,2229.00
2023-02-19T07:30:50.137Z,2266.00
2023-02-19T07:31:50.116Z,2285.00
2023-02-19T07:32:50.078Z,2317.00
2023-02-19T07:33:50.070Z,2349.00
2023-02-19T07:34:50.058Z,2370.00
2023-02-19T07:35:50.053Z,2408.00
2023-02-19T07:36:50.038Z,2429.00
2023-02-19T07:37:50.035Z,2456.00
2023-02-19T07:38:50.019Z,2477.00
2023-02-19T07:39:50.008Z,2511.00
2023-02-19T07:40:49.996Z,2545.00
2023-02-19T07:41:49.991Z,2572.00
2023-02-19T07:42:49.985Z,2591.00
2023-02-19T07:43:49.967Z,2621.00
2023-02-19T07:44:49.959Z,2650.00
2023-02-19T07:45:50.014Z,2675.00
2023-02-19T07:46:49.940Z,2716.00
2023-02-19T07:47:49.934Z,2746.00
2023-02-19T07:48:49.922Z,2792.00
2023-02-19T07:49:49.906Z,2812.00
2023-02-19T07:50:49.895Z,2847.00
2023-02-19T07:51:49.887Z,2881.00
2023-02-19T07:52:49.878Z,2909.00
2023-02-19T07:53:49.862Z,2946.00
2023-02-19T07:54:49.852Z,2983.00
2023-02-19T07:55:49.847Z,3032.00
2023-02-19T07:56:49.836Z,3064.00
2023-02-19T07:57:49.822Z,3101.00
2023-02-19T07:58:49.845Z,3133.00
2023-02-19T07:59:49.807Z,3183.00
2023-02-19T08:00:49.816Z,3225.00
2023-02-19T08:01:49.789Z,3267.00
2023-02-19T08:02:49.769Z,3326.00
2023-02-19T08:03:50.575Z,3369.00
2023-02-19T08:04:49.750Z,3427.00
2023-02-19T08:05:49.765Z,3469.00
2023-02-19T08:06:49.841Z,3519.00
2023-02-19T08:07:49.717Z,3552.00
2023-02-19T08:08:49.721Z,3597.00
2023-02-19T08:09:49.697Z,3633.00
2023-02-19T08:10:49.689Z,3723.00
2023-02-19T08:11:49.677Z,3702.00
2023-02-19T08:12:49.664Z,3735.00
2023-02-19T08:13:49.660Z,3779.00
2023-02-19T08:14:49.645Z,3834.00
2023-02-19T08:15:49.632Z,3882.00
2023-02-19T08:16:49.668Z,3950.00
2023-02-19T08:17:49.618Z,3978.00
2023-02-19T08:18:49.608Z,4039.00
2023-02-19T08:19:49.592Z,4106.00
2023-02-19T08:20:49.579Z,4159.00
2023-02-19T08:21:49.571Z,4203.00
2023-02-19T08:22:49.590Z,4288.00
2023-02-19T08:23:51.185Z,4359.00
2023-02-19T08:24:49.545Z,4432.00
2023-02-19T08:25:49.542Z,4511.00
2023-02-19T08:26:49.541Z,4582.00
2023-02-19T08:27:49.506Z,4662.00
2023-02-19T08:28:49.510Z,4744.00
2023-02-19T08:29:49.486Z,4828.00
2023-02-19T08:30:49.642Z,4898.00
2023-02-19T08:31:49.770Z,4978.00
2023-02-19T08:32:49.456Z,5056.00
2023-02-19T08:33:49.455Z,5127.00
2023-02-19T08:34:49.435Z,5214.00
2023-02-19T08:35:49.425Z,5286.00
2023-02-19T08:36:49.414Z,5392.00
2023-02-19T08:37:49.405Z,5478.00
2023-02-19T08:38:49.394Z,5579.00
2023-02-19T08:39:49.385Z,5655.00
2023-02-19T08:40:49.371Z,5753.00
2023-02-19T08:41:49.359Z,5856.00
2023-02-19T08:42:49.350Z,5958.00
2023-02-19T08:43:49.346Z,6037.00
2023-02-19T08:44:49.331Z,6130.00
2023-02-19T08:45:49.363Z,6228.00
2023-02-19T08:46:49.315Z,6328.00
2023-02-19T08:47:49.295Z,6417.00
2023-02-19T08:48:49.295Z,6523.00
2023-02-19T08:49:49.281Z,6614.00
2023-02-19T08:50:49.267Z,6748.00
2023-02-19T08:51:49.259Z,6852.00
2023-02-19T08:52:49.243Z,6937.00
2023-02-19T08:53:49.235Z,7041.00
2023-02-19T08:54:49.225Z,7146.00
2023-02-19T08:55:49.215Z,7239.00
2023-02-19T08:56:49.201Z,7344.00
2023-02-19T08:57:50.639Z,7444.00
2023-02-19T08:58:49.202Z,7579.00
2023-02-19T08:59:49.176Z,7718.00
2023-02-19T09:00:49.176Z,7836.00
2023-02-19T09:01:49.156Z,7963.00
2023-02-19T09:02:49.145Z,8088.00
2023-02-19T09:03:49.141Z,8198.00
2023-02-19T09:04:49.123Z,8314.00
2023-02-19T09:05:49.125Z,8451.00
2023-02-19T09:06:49.102Z,8604.00
2023-02-19T09:07:49.093Z,8767.00
2023-02-19T09:08:49.080Z,8910.00
2023-02-19T09:09:49.070Z,9165.00
2023-02-19T09:10:49.059Z,9300.00
2023-02-19T09:11:49.376Z,9379.00
2023-02-19T09:12:49.037Z,9432.00
2023-02-19T09:13:49.022Z,9543.00
2023-02-19T09:14:49.019Z,9657.00
2023-02-19T09:15:49.111Z,9715.00
2023-02-19T09:16:48.994Z,9759.00
2023-02-19T09:17:48.982Z,9787.00
2023-02-19T09:18:48.968Z,9817.00
2023-02-19T09:19:50.824Z,9885.00
2023-02-19T09:20:48.952Z,10029.00
2023-02-19T09:21:48.942Z,10183.00
2023-02-19T09:22:48.952Z,10290.00
2023-02-19T09:23:48.923Z,10522.00
2023-02-19T09:24:48.913Z,10814.00
2023-02-19T09:25:48.897Z,11154.00
2023-02-19T09:26:48.893Z,11240.00
2023-02-19T09:27:48.894Z,11247.00
2023-02-19T09:28:48.869Z,11451.00
2023-02-19T09:29:48.865Z,11557.00
2023-02-19T09:30:48.863Z,11800.00
2023-02-19T09:31:48.999Z,12108.00
2023-02-19T09:32:48.840Z,12458.00
2023-02-19T09:33:48.849Z,12657.00
2023-02-19T09:34:48.808Z,12471.00
2023-02-19T09:35:48.797Z,12668.00
2023-02-19T09:36:48.787Z,12873.00
2023-02-19T09:37:48.882Z,12904.00
2023-02-19T09:38:48.775Z,13017.00
2023-02-19T09:39:48.763Z,13156.00
2023-02-19T09:40:48.746Z,13287.00
2023-02-19T09:41:48.732Z,13505.00
2023-02-19T09:42:48.724Z,13421.00
2023-02-19T09:43:48.719Z,13945.00
2023-02-19T09:44:48.701Z,13901.00
2023-02-19T09:45:48.689Z,13759.00
2023-02-19T09:46:48.680Z,13615.00
2023-02-19T09:47:48.671Z,13635.00
2023-02-19T09:48:48.659Z,13538.00
2023-02-19T09:49:48.650Z,13361.00
2023-02-19T09:50:48.643Z,13428.00
2023-02-19T09:51:48.628Z,13825.00
2023-02-19T09:52:48.615Z,13826.00
2023-02-19T09:53:48.609Z,14003.00
2023-02-19T09:54:48.593Z,14357.00
2023-02-19T09:55:48.585Z,14700.00
2023-02-19T09:56:48.585Z,15049.00
2023-02-19T09:57:48.567Z,15988.00
2023-02-19T09:58:48.561Z,15994.00
2023-02-19T09:59:48.542Z,16379.00
2023-02-19T10:00:48.531Z,16869.00
2023-02-19T10:01:48.545Z,17097.00
2023-02-19T10:02:48.510Z,17146.00
2023-02-19T10:03:48.533Z,17708.00
2023-02-19T10:04:48.551Z,18769.00
2023-02-19T10:05:48.491Z,19106.00
2023-02-19T10:06:48.466Z,19524.00
2023-02-19T10:07:48.464Z,19965.00
2023-02-19T10:08:48.448Z,20357.00
2023-02-19T10:09:48.438Z,20786.00
2023-02-19T10:10:48.426Z,21010.00
2023-02-19T10:11:48.411Z,22008.00
2023-02-19T10:12:48.405Z,22641.00
2023-02-19T10:13:48.394Z,23071.00
2023-02-19T10:14:48.389Z,23390.00
2023-02-19T10:15:48.398Z,23442.00
2023-02-19T10:16:48.362Z,23848.00
2023-02-19T10:17:48.350Z,24487.00
2023-02-19T10:18:48.353Z,25203.00
2023-02-19T10:19:48.331Z,24544.00
2023-02-19T10:20:48.322Z,26200.00
2023-02-19T10:21:48.313Z,27411.00
2023-02-19T10:22:48.300Z,26558.00
2023-02-19T10:23:48.286Z,26878.00
2023-02-19T10:24:48.279Z,25410.00
2023-02-19T10:25:48.272Z,25433.00
2023-02-19T10:26:48.256Z,25857.00
2023-02-19T10:27:48.247Z,26937.00
2023-02-19T10:28:48.237Z,27026.00
2023-02-19T10:29:48.229Z,28150.00
2023-02-19T10:30:48.225Z,26755.00
2023-02-19T10:31:48.342Z,27438.00
2023-02-19T10:32:48.197Z,27733.00
2023-02-19T10:33:48.186Z,29204.00
2023-02-19T10:34:48.175Z,29624.00
2023-02-19T10:35:48.166Z,31216.00
2023-02-19T10:36:48.153Z,30593.00
2023-02-19T10:37:48.147Z,32267.00
2023-02-19T10:38:48.134Z,32506.00
2023-02-19T10:39:48.123Z,32954.00
2023-02-19T10:40:48.113Z,33172.00
2023-02-19T10:41:48.108Z,33066.00
2023-02-19T10:42:48.116Z,34499.00
2023-02-19T10:43:48.080Z,33700.00
2023-02-19T10:44:48.071Z,33349.00
2023-02-19T10:45:48.070Z,33848.00
2023-02-19T10:46:48.175Z,33986.00
2023-02-19T10:47:48.037Z,34150.00
2023-02-19T10:48:48.029Z,34570.00
2023-02-19T10:49:48.026Z,36351.00
2023-02-19T10:50:48.019Z,35148.00
2023-02-19T10:51:48.003Z,34820.00
2023-02-19T10:52:47.990Z,36711.00
2023-02-19T10:53:47.980Z,36043.00
2023-02-19T10:54:47.970Z,35752.00
2023-02-19T10:55:47.960Z,37689.00
2023-02-19T10:56:47.960Z,38333.00
2023-02-19T10:57:47.940Z,40039.00
2023-02-19T10:58:47.926Z,40938.00
2023-02-19T10:59:47.917Z,41563.00
2023-02-19T11:00:47.912Z,42237.00
2023-02-19T11:01:48.008Z,44852.00
2023-02-19T11:02:47.885Z,41412.00
2023-02-19T11:03:47.876Z,40102.00
2023-02-19T11:04:47.874Z,39723.00
2023-02-19T11:05:47.857Z,39986.00
2023-02-19T11:06:47.850Z,40822.00
2023-02-19T11:07:47.845Z,41005.00
2023-02-19T11:08:47.829Z,39464.00
2023-02-19T11:09:47.826Z,41024.00
2023-02-19T11:10:47.806Z,40994.00
2023-02-19T11:11:47.794Z,41050.00
2023-02-19T11:12:47.784Z,41884.00
2023-02-19T11:13:47.774Z,40122.00
2023-02-19T11:14:47.762Z,41004.00
2023-02-19T11:15:47.782Z,41081.00
2023-02-19T11:16:47.755Z,40012.00
2023-02-19T11:17:47.734Z,41234.00
2023-02-19T11:18:47.726Z,41938.00
2023-02-19T11:19:47.712Z,42167.00
2023-02-19T11:20:47.699Z,41539.00
2023-02-19T11:21:47.689Z,42370.00
2023-02-19T11:22:47.684Z,44422.00
2023-02-19T11:23:47.675Z,43539.00
2023-02-19T11:24:47.659Z,41713.00
2023-02-19T11:25:47.664Z,41649.00
2023-02-19T11:26:47.639Z,45910.00
2023-02-19T11:27:47.632Z,45495.00
2023-02-19T11:28:47.617Z,41875.00
2023-02-19T11:29:47.609Z,43245.00
2023-02-19T11:30:47.636Z,46688.00
2023-02-19T11:31:47.730Z,50582.00
2023-02-19T11:32:47.579Z,47363.00
2023-02-19T11:33:47.567Z,48298.00
2023-02-19T11:34:47.578Z,49250.00
2023-02-19T11:35:47.548Z,48589.00
2023-02-19T11:36:47.538Z,53339.00
2023-02-19T11:37:47.531Z,52689.00
2023-02-19T11:38:47.532Z,51708.00
2023-02-19T11:39:47.541Z,49849.00
2023-02-19T11:40:47.509Z,49532.00
2023-02-19T11:41:47.493Z,44078.00
2023-02-19T11:42:47.481Z,44528.00
2023-02-19T11:43:47.477Z,48855.00
2023-02-19T11:44:47.476Z,44563.00
2023-02-19T11:45:47.455Z,43708.00
2023-02-19T11:46:47.453Z,43634.00
2023-02-19T11:48:09.605Z,53817.00
2023-02-19T11:48:47.427Z,53200.00
2023-02-19T11:54:12.366Z,51994.00
2023-02-19T11:54:13.777Z,50572.00
2023-02-19T11:56:10.112Z,49767.00
2023-02-19T11:56:13.760Z,49351.00
2023-02-19T11:59:32.317Z,51151.00
2023-02-19T11:59:33.722Z,50824.00
2023-02-19T12:00:33.715Z,49467.00
2023-02-19T12:01:33.705Z,47877.00
2023-02-19T12:02:33.699Z,47742.00
2023-02-19T12:03:33.689Z,51776.00
2023-02-19T12:04:34.478Z,49107.00
2023-02-19T12:05:33.670Z,46111.00
2023-02-19T15:57:36.493Z,20770.00
2023-02-19T15:57:38.078Z,20594.00
2023-02-19T15:58:37.897Z,25686.00
2023-02-19T15:59:37.884Z,24501.00
2023-02-19T16:00:37.880Z,16682.00
2023-02-19T16:01:37.990Z,14334.00
2023-02-19T16:02:37.875Z,16476.00
2023-02-19T16:03:37.851Z,13233.00
2023-02-19T16:04:37.841Z,14722.00
2023-02-19T16:05:37.826Z,23537.00
2023-02-19T16:06:37.824Z,17581.00
2023-02-19T16:07:37.807Z,14427.00
2023-02-19T16:08:37.830Z,14804.00
2023-02-19T16:09:37.797Z,15739.00
2023-02-19T16:10:37.780Z,13768.00
2023-02-19T16:11:37.764Z,12979.00
2023-02-19T16:12:37.760Z,18773.00
2023-02-19T16:13:37.746Z,17254.00
2023-02-19T16:14:37.740Z,12978.00
2023-02-19T16:15:37.731Z,13135.00
2023-02-19T16:16:37.719Z,12168.00
2023-02-19T16:17:37.719Z,11434.00
2023-02-19T16:18:37.703Z,11672.00
2023-02-19T16:19:37.703Z,11259.00
2023-02-19T16:20:37.684Z,10736.00
2023-02-19T16:21:37.674Z,10982.00
2023-02-19T16:22:37.666Z,11154.00
2023-02-19T16:23:37.652Z,9550.00
2023-02-19T16:24:37.640Z,9504.00
2023-02-19T16:25:37.639Z,9175.00
2023-02-19T16:26:37.622Z,8781.00
2023-02-19T16:27:37.620Z,8553.00
2023-02-19T16:28:37.609Z,7528.00
2023-02-19T16:29:37.591Z,7757.00
2023-02-19T16:30:37.696Z,7392.00
2023-02-19T16:31:37.679Z,6317.00
2023-02-19T16:32:37.565Z,6092.00
2023-02-19T16:33:37.558Z,5472.00
2023-02-19T16:34:37.545Z,5141.00
2023-02-19T16:35:37.529Z,5024.00